createdAt,value
2023-05-07T00:01:31.387Z,61.47
2023-05-07T00:03:33.425Z,61.54
2023-05-07T00:05:34.927Z,61.17
2023-05-07T00:07:36.352Z,61.70
2023-05-07T00:09:37.907Z,61.87
2023-05-07T00:11:39.240Z,61.61
2023-05-07T00:13:40.548Z,61.79
2023-05-07T00:15:41.853Z,61.79
2023-05-07T00:17:43.273Z,61.59
2023-05-07T00:19:44.619Z,61.80
2023-05-07T00:21:46.287Z,62.04
2023-05-07T00:23:47.602Z,61.44
2023-05-07T00:25:48.902Z,61.79
2023-05-07T00:27:50.355Z,61.96
2023-05-07T00:29:51.650Z,62.37
2023-05-07T00:31:54.975Z,62.09
2023-05-07T00:33:56.395Z,62.01
2023-05-07T00:35:57.737Z,61.63
2023-05-07T00:37:59.043Z,62.12
2023-05-07T00:40:00.416Z,62.12
2023-05-07T00:42:02.175Z,61.96
2023-05-07T00:44:03.546Z,62.25
2023-05-07T00:46:04.948Z,62.45
2023-05-07T00:48:06.406Z,62.52
2023-05-07T00:50:08.276Z,62.48
2023-05-07T00:52:09.619Z,62.25
2023-05-07T00:54:11.036Z,62.40
2023-05-07T00:56:12.396Z,62.21
2023-05-07T00:58:13.827Z,62.45
2023-05-07T01:00:15.369Z,62.25
2023-05-07T01:02:16.825Z,62.28
2023-05-07T01:04:18.176Z,61.92
2023-05-07T01:06:19.904Z,62.54
2023-05-07T01:08:21.632Z,62.03
2023-05-07T01:10:22.927Z,62.16
2023-05-07T01:12:24.252Z,62.41
2023-05-07T01:14:25.595Z,62.18
2023-05-07T01:16:27.871Z,62.38
2023-05-07T01:18:30.981Z,62.57
2023-05-07T01:20:32.306Z,62.52
2023-05-07T01:22:33.598Z,62.79
2023-05-07T01:24:34.937Z,62.27
2023-05-07T01:26:36.376Z,62.23
2023-05-07T01:28:37.668Z,62.53
2023-05-07T01:30:39.007Z,62.80
2023-05-07T01:32:40.372Z,62.37
2023-05-07T01:34:41.830Z,62.71
2023-05-07T01:36:43.294Z,62.54
2023-05-07T01:38:44.615Z,62.77
2023-05-07T01:40:46.137Z,62.88
2023-05-07T01:42:47.493Z,62.67
2023-05-07T01:44:48.903Z,62.45
2023-05-07T01:46:50.477Z,62.99
2023-05-07T01:48:51.828Z,62.72
2023-05-07T01:50:53.262Z,62.81
2023-05-07T01:52:54.756Z,62.54
2023-05-07T01:54:56.104Z,62.46
2023-05-07T01:56:57.398Z,62.57
2023-05-07T01:58:58.771Z,62.76
2023-05-07T02:01:00.116Z,62.46
2023-05-07T02:03:01.576Z,62.46
2023-05-07T02:05:03.039Z,62.88
2023-05-07T02:07:04.380Z,62.80
2023-05-07T02:09:06.904Z,63.00
2023-05-07T02:11:08.268Z,63.15
2023-05-07T02:13:09.672Z,63.07
2023-05-07T02:15:11.587Z,62.82
2023-05-07T02:17:12.900Z,62.74
2023-05-07T02:19:14.220Z,62.67
2023-05-07T02:21:15.532Z,62.70
2023-05-07T02:23:16.829Z,62.78
2023-05-07T02:25:18.144Z,62.56
2023-05-07T02:27:19.455Z,62.39
2023-05-07T02:29:20.861Z,62.64
2023-05-07T02:31:22.202Z,62.17
2023-05-07T02:33:23.537Z,62.18
2023-05-07T02:35:24.895Z,62.42
2023-05-07T02:37:26.195Z,63.06
2023-05-07T02:39:27.538Z,62.94
2023-05-07T02:41:29.121Z,63.30
2023-05-07T02:43:30.558Z,63.36
2023-05-07T02:45:31.901Z,63.14
2023-05-07T02:47:33.263Z,63.68
2023-05-07T02:49:34.619Z,62.81
2023-05-07T02:51:36.049Z,63.35
2023-05-07T02:53:37.738Z,63.07
2023-05-07T02:55:39.170Z,63.23
2023-05-07T02:57:40.518Z,62.93
2023-05-07T02:59:41.827Z,63.12
2023-05-07T03:01:45.148Z,63.04
2023-05-07T03:03:46.611Z,63.17
2023-05-07T03:05:47.993Z,63.40
2023-05-07T03:07:49.340Z,63.43
2023-05-07T03:09:50.905Z,63.42
2023-05-07T03:11:52.316Z,63.60
2023-05-07T03:13:53.614Z,63.42
2023-05-07T03:15:54.973Z,62.85
2023-05-07T03:17:56.345Z,63.35
2023-05-07T03:19:57.715Z,63.69
2023-05-07T03:21:59.056Z,63.52
2023-05-07T03:24:00.375Z,63.61
2023-05-07T03:26:01.784Z,63.48
2023-05-07T03:28:03.150Z,63.35
2023-05-07T03:30:04.499Z,63.16
2023-05-07T03:32:06.916Z,63.41
2023-05-07T03:34:08.223Z,63.54
2023-05-07T03:36:09.543Z,63.47
2023-05-07T03:38:10.928Z,63.20
2023-05-07T03:40:13.532Z,63.13
2023-05-07T03:42:15.810Z,63.33
2023-05-07T03:44:17.147Z,63.40
2023-05-07T03:46:18.490Z,63.33
2023-05-07T03:48:19.857Z,63.52
2023-05-07T03:50:21.158Z,63.77
2023-05-07T03:52:26.821Z,63.84
2023-05-07T03:54:28.192Z,63.80
2023-05-07T03:56:29.511Z,63.80
2023-05-07T03:58:30.856Z,63.60
2023-05-07T04:00:34.630Z,63.27
2023-05-07T04:02:36.145Z,63.36
2023-05-07T04:04:37.504Z,63.25
2023-05-07T04:06:38.804Z,63.11
2023-05-07T04:08:40.168Z,62.96
2023-05-07T04:10:41.502Z,63.38
2023-05-07T04:12:42.825Z,63.21
2023-05-07T04:14:44.203Z,63.16
2023-05-07T04:16:45.581Z,62.80
2023-05-07T04:18:46.922Z,63.62
2023-05-07T04:20:48.259Z,63.04
2023-05-07T04:22:49.606Z,63.22
2023-05-07T04:24:50.944Z,63.33
2023-05-07T04:26:52.268Z,63.49
2023-05-07T04:28:53.585Z,63.45
2023-05-07T04:30:54.891Z,63.30
2023-05-07T04:32:57.210Z,63.07
2023-05-07T04:34:58.569Z,63.54
2023-05-07T04:36:59.904Z,62.99
2023-05-07T04:39:01.501Z,63.05
2023-05-07T04:41:02.854Z,63.27
2023-05-07T04:43:04.151Z,63.26
2023-05-07T04:45:05.943Z,63.15
2023-05-07T04:47:07.525Z,63.74
2023-05-07T04:49:08.831Z,63.37
2023-05-07T04:51:10.132Z,63.67
2023-05-07T04:53:11.430Z,62.98
2023-05-07T04:55:12.727Z,63.25
2023-05-07T04:57:14.302Z,63.53
2023-05-07T04:59:15.607Z,63.78
2023-05-07T05:01:17.075Z,63.80
2023-05-07T05:03:18.475Z,63.55
2023-05-07T05:05:19.832Z,63.39
2023-05-07T05:07:21.206Z,63.24
2023-05-07T05:09:22.507Z,64.01
2023-05-07T05:11:23.811Z,63.60
2023-05-07T05:13:25.160Z,63.68
2023-05-07T05:15:26.462Z,63.72
2023-05-07T05:17:27.805Z,63.46
2023-05-07T05:19:29.773Z,63.07
2023-05-07T05:21:31.114Z,63.35
2023-05-07T05:23:32.518Z,63.48
2023-05-07T05:25:33.867Z,63.27
2023-05-07T05:27:35.170Z,63.42
2023-05-07T05:29:36.602Z,63.11
2023-05-07T05:31:38.359Z,63.29
2023-05-07T05:33:39.655Z,63.67
2023-05-07T05:35:40.968Z,63.62
2023-05-07T05:37:42.454Z,63.68
2023-05-07T05:39:43.853Z,63.26
2023-05-07T05:41:45.240Z,63.13
2023-05-07T05:43:46.603Z,63.10
2023-05-07T05:45:47.895Z,63.68
2023-05-07T05:47:49.304Z,63.54
2023-05-07T05:49:50.749Z,63.07
2023-05-07T05:51:52.044Z,63.14
2023-05-07T05:53:53.350Z,63.33
2023-05-07T05:55:54.715Z,63.28
2023-05-07T05:57:56.132Z,62.74
2023-05-07T05:59:57.489Z,63.21
2023-05-07T06:01:58.896Z,62.99
2023-05-07T06:04:00.239Z,63.44
2023-05-07T06:06:02.205Z,63.01
2023-05-07T06:08:03.551Z,63.51
2023-05-07T06:10:04.857Z,63.58
2023-05-07T06:12:06.218Z,63.20
2023-05-07T06:14:07.725Z,63.55
2023-05-07T06:16:09.117Z,63.63
2023-05-07T06:18:10.517Z,63.27
2023-05-07T06:20:12.116Z,62.85
2023-05-07T06:22:13.698Z,62.74
2023-05-07T06:24:15.032Z,63.22
2023-05-07T06:26:16.357Z,63.65
2023-05-07T06:28:17.743Z,63.74
2023-05-07T06:30:19.038Z,63.86
2023-05-07T06:32:20.586Z,64.12
2023-05-07T06:34:21.973Z,63.51
2023-05-07T06:36:23.285Z,62.89
2023-05-07T06:38:24.600Z,63.45
2023-05-07T06:40:25.905Z,63.09
2023-05-07T06:42:27.684Z,63.68
2023-05-07T06:44:29.143Z,63.65
2023-05-07T06:46:30.803Z,63.56
2023-05-07T06:48:32.192Z,63.01
2023-05-07T06:50:33.613Z,62.28
2023-05-07T06:52:34.981Z,62.43
2023-05-07T06:54:39.332Z,62.61
2023-05-07T06:56:40.896Z,62.54
2023-05-07T06:58:42.372Z,62.70
2023-05-07T07:00:43.786Z,62.58
2023-05-07T07:02:45.678Z,62.81
2023-05-07T07:04:47.075Z,62.70
2023-05-07T07:06:48.423Z,62.69
2023-05-07T07:08:49.745Z,62.83
2023-05-07T07:10:51.186Z,62.28
2023-05-07T07:12:53.752Z,62.57
2023-05-07T07:14:55.321Z,62.49
2023-05-07T07:16:56.666Z,61.95
2023-05-07T07:18:58.027Z,61.90
2023-05-07T07:20:59.989Z,61.93
2023-05-07T07:23:02.158Z,62.36
2023-05-07T07:25:03.503Z,62.21
2023-05-07T07:27:04.828Z,61.95
2023-05-07T07:29:06.120Z,61.81
2023-05-07T07:31:07.859Z,61.83
2023-05-07T07:33:09.322Z,62.17
2023-05-07T07:35:11.022Z,61.65
2023-05-07T07:37:12.324Z,61.51
2023-05-07T07:39:13.613Z,61.50
2023-05-07T07:41:14.956Z,61.34
2023-05-07T07:43:16.302Z,61.30
2023-05-07T07:45:17.615Z,61.37
2023-05-07T07:47:18.928Z,54.71
2023-05-07T07:49:20.408Z,54.84
2023-05-07T07:51:21.736Z,51.91
2023-05-07T07:53:23.060Z,54.55
2023-05-07T07:55:24.421Z,53.31
2023-05-07T07:57:25.837Z,52.09
2023-05-07T07:59:27.188Z,52.46
2023-05-07T08:01:28.572Z,52.97
2023-05-07T08:03:33.052Z,53.80
2023-05-07T08:05:34.487Z,54.25
2023-05-07T08:07:35.863Z,55.05
2023-05-07T08:09:37.219Z,55.39
2023-05-07T08:11:38.639Z,55.43
2023-05-07T08:13:39.981Z,55.73
2023-05-07T08:15:41.270Z,55.62
2023-05-07T08:17:42.633Z,55.86
2023-05-07T08:19:44.516Z,55.87
2023-05-07T08:21:46.016Z,56.27
2023-05-07T08:23:47.317Z,56.38
2023-05-07T08:25:48.632Z,56.17
2023-05-07T08:27:49.973Z,56.27
2023-05-07T08:29:51.420Z,56.13
2023-05-07T08:31:52.811Z,56.83
2023-05-07T08:33:54.151Z,56.46
2023-05-07T08:35:55.499Z,56.78
2023-05-07T08:37:56.883Z,56.61
2023-05-07T08:39:58.191Z,56.62
2023-05-07T08:41:59.497Z,56.81
2023-05-07T08:44:02.192Z,56.82
2023-05-07T08:46:03.624Z,56.97
2023-05-07T08:48:05.166Z,56.93
2023-05-07T08:50:06.546Z,57.03
2023-05-07T08:52:09.823Z,57.60
2023-05-07T08:54:11.716Z,57.17
2023-05-07T08:56:13.037Z,57.29
2023-05-07T08:58:14.662Z,57.23
2023-05-07T09:00:16.024Z,57.97
2023-05-07T09:02:17.737Z,58.48
2023-05-07T09:04:19.329Z,58.71
2023-05-07T09:06:20.759Z,58.63
2023-05-07T09:08:22.055Z,58.96
2023-05-07T09:10:23.393Z,58.63
2023-05-07T09:12:24.745Z,59.06
2023-05-07T09:14:26.080Z,59.14
2023-05-07T09:16:27.556Z,58.74
2023-05-07T09:18:28.913Z,59.45
2023-05-07T09:20:30.364Z,59.11
2023-05-07T09:22:31.674Z,59.20
2023-05-07T09:24:36.044Z,59.07
2023-05-07T09:26:40.231Z,59.62
2023-05-07T09:28:42.449Z,59.11
2023-05-07T09:30:43.783Z,58.85
2023-05-07T09:32:45.165Z,59.29
2023-05-07T09:34:48.176Z,58.74
2023-05-07T09:36:49.514Z,58.96
2023-05-07T09:38:52.391Z,58.81
2023-05-07T09:40:53.917Z,58.69
2023-05-07T09:42:55.221Z,59.11
2023-05-07T09:44:56.627Z,59.12
2023-05-07T09:46:58.015Z,58.75
2023-05-07T09:48:59.825Z,58.71
2023-05-07T09:51:02.144Z,58.69
2023-05-07T09:53:03.467Z,58.79
2023-05-07T09:55:05.543Z,59.10
2023-05-07T09:57:07.975Z,59.16
2023-05-07T09:59:09.384Z,58.95
2023-05-07T10:01:10.746Z,59.08
2023-05-07T10:03:12.673Z,59.32
2023-05-07T10:05:14.046Z,59.31
2023-05-07T10:07:15.605Z,59.14
2023-05-07T10:09:17.381Z,59.33
2023-05-07T10:11:18.731Z,59.35
2023-05-07T10:13:20.089Z,58.86
2023-05-07T10:15:21.463Z,59.07
2023-05-07T10:17:26.035Z,59.28
2023-05-07T10:19:27.487Z,58.77
2023-05-07T10:21:29.152Z,58.78
2023-05-07T10:23:33.926Z,58.99
2023-05-07T10:25:35.392Z,59.16
2023-05-07T10:27:36.704Z,58.87
2023-05-07T10:29:38.043Z,58.68
2023-05-07T10:31:39.519Z,58.73
2023-05-07T10:33:40.961Z,58.83
2023-05-07T10:35:42.300Z,58.71
2023-05-07T10:37:43.633Z,58.96
2023-05-07T10:39:44.990Z,58.55
2023-05-07T10:41:52.176Z,58.55
2023-05-07T10:43:53.468Z,58.15
2023-05-07T10:45:54.813Z,58.49
2023-05-07T10:47:56.173Z,58.43
2023-05-07T10:50:00.422Z,58.58
2023-05-07T10:52:01.781Z,58.54
2023-05-07T10:54:03.081Z,58.70
2023-05-07T10:56:04.454Z,58.50
2023-05-07T10:58:05.788Z,58.67
2023-05-07T11:00:10.099Z,58.81
2023-05-07T11:02:12.381Z,58.88
2023-05-07T11:04:13.940Z,58.25
2023-05-07T11:06:15.519Z,57.78
2023-05-07T11:08:16.865Z,57.95
2023-05-07T11:10:18.178Z,58.24
2023-05-07T11:12:19.470Z,58.25
2023-05-07T11:14:20.774Z,58.20
2023-05-07T11:16:22.322Z,58.48
2023-05-07T11:18:23.681Z,58.75
2023-05-07T11:20:28.084Z,59.57
2023-05-07T11:22:29.395Z,59.93
2023-05-07T11:24:30.766Z,59.33
2023-05-07T11:26:32.186Z,59.90
2023-05-07T11:28:33.497Z,60.08
2023-05-07T11:30:34.848Z,59.88
2023-05-07T11:32:36.326Z,60.35
2023-05-07T11:34:37.708Z,60.20
2023-05-07T11:36:39.675Z,60.27
2023-05-07T11:38:41.200Z,60.06
2023-05-07T11:40:42.546Z,60.04
2023-05-07T11:42:46.981Z,60.20
2023-05-07T11:44:49.221Z,60.36
2023-05-07T11:46:50.683Z,60.66
2023-05-07T11:48:52.121Z,60.56
2023-05-07T11:50:56.155Z,60.45
2023-05-07T11:52:57.455Z,60.77
2023-05-07T11:54:58.915Z,60.96
2023-05-07T11:57:00.469Z,60.28
2023-05-07T11:59:01.800Z,60.46
2023-05-07T12:01:03.135Z,60.76
2023-05-07T12:03:07.686Z,60.73
2023-05-07T12:05:12.349Z,61.00
2023-05-07T12:07:14.620Z,61.09
2023-05-07T12:09:15.954Z,60.99
2023-05-07T12:11:18.510Z,60.65
2023-05-07T12:13:20.064Z,60.82
2023-05-07T12:15:21.456Z,61.12
2023-05-07T12:17:22.780Z,60.61
2023-05-07T12:19:24.112Z,60.81
2023-05-07T12:21:26.251Z,60.31
2023-05-07T12:23:30.506Z,60.66
2023-05-07T12:25:32.108Z,60.77
2023-05-07T12:27:33.408Z,60.94
2023-05-07T12:29:34.768Z,60.42
2023-05-07T12:31:36.276Z,60.38
2023-05-07T12:33:37.811Z,60.90
2023-05-07T12:35:43.697Z,60.61
2023-05-07T12:37:45.023Z,60.55
2023-05-07T12:39:46.326Z,60.31
2023-05-07T12:41:47.668Z,60.37
2023-05-07T12:43:48.970Z,60.48
2023-05-07T12:45:50.276Z,60.33
2023-05-07T12:47:51.676Z,60.19
2023-05-07T12:49:53.011Z,60.64
2023-05-07T12:51:54.340Z,60.57
2023-05-07T12:53:55.692Z,61.03
2023-05-07T12:55:57.127Z,61.22
2023-05-07T12:57:59.337Z,60.87
2023-05-07T13:00:00.855Z,61.30
2023-05-07T13:02:02.341Z,61.34
2023-05-07T13:04:03.927Z,61.26
2023-05-07T13:06:08.376Z,61.39
2023-05-07T13:08:10.699Z,61.13
2023-05-07T13:10:12.027Z,61.73
2023-05-07T13:12:13.343Z,61.75
2023-05-07T13:14:14.669Z,61.25
2023-05-07T13:16:16.052Z,61.48
2023-05-07T13:18:17.567Z,61.30
2023-05-07T13:20:18.972Z,61.21
2023-05-07T13:22:20.303Z,60.90
2023-05-07T13:24:21.754Z,61.07
2023-05-07T13:26:26.938Z,61.02
2023-05-07T13:28:28.603Z,60.87
2023-05-07T13:30:29.932Z,61.13
2023-05-07T13:32:31.378Z,60.90
2023-05-07T13:34:32.775Z,60.93
2023-05-07T13:36:38.062Z,61.21
2023-05-07T13:38:39.398Z,60.96
2023-05-07T13:40:40.928Z,60.75
2023-05-07T13:42:42.512Z,60.61
2023-05-07T13:44:44.862Z,60.91
2023-05-07T13:46:46.309Z,60.51
2023-05-07T13:48:47.709Z,60.24
2023-05-07T13:50:49.003Z,60.31
2023-05-07T13:52:53.071Z,60.21
2023-05-07T13:54:54.381Z,60.10
2023-05-07T13:56:55.749Z,60.13
2023-05-07T13:59:00.459Z,60.15
2023-05-07T14:01:02.191Z,59.79
2023-05-07T14:03:03.702Z,59.61
2023-05-07T14:05:05.126Z,59.93
2023-05-07T14:07:06.662Z,59.66
2023-05-07T14:09:08.197Z,59.58
2023-05-07T14:11:09.615Z,58.76
2023-05-07T14:13:11.709Z,59.32
2023-05-07T14:15:17.120Z,59.35
2023-05-07T14:17:18.753Z,59.39
2023-05-07T14:19:20.290Z,59.04
2023-05-07T14:21:21.616Z,59.18
2023-05-07T14:23:33.189Z,59.14
2023-05-07T14:25:34.541Z,59.63
2023-05-07T14:27:36.042Z,59.62
2023-05-07T14:29:37.522Z,59.46
2023-05-07T14:31:38.933Z,59.34
2023-05-07T14:33:42.022Z,59.55
2023-05-07T14:35:48.981Z,59.35
2023-05-07T14:37:50.337Z,59.54
2023-05-07T14:39:51.670Z,59.88
2023-05-07T14:41:52.992Z,59.51
2023-05-07T14:43:54.339Z,59.49
2023-05-07T14:45:55.786Z,59.59
2023-05-07T14:47:57.252Z,59.88
2023-05-07T14:49:59.440Z,59.82
2023-05-07T14:52:07.196Z,59.65
2023-05-07T14:54:08.949Z,59.63
2023-05-07T14:56:10.342Z,59.56
2023-05-07T14:58:11.653Z,59.67
2023-05-07T15:00:13.830Z,59.42
2023-05-07T15:02:16.551Z,59.61
2023-05-07T15:04:17.954Z,59.31
2023-05-07T15:06:19.336Z,59.44
2023-05-07T15:08:20.837Z,59.55
2023-05-07T15:10:22.154Z,59.21
2023-05-07T15:12:23.473Z,59.25
2023-05-07T15:14:24.772Z,59.72
2023-05-07T15:16:28.770Z,59.20
2023-05-07T15:18:30.172Z,59.24
2023-05-07T15:20:31.516Z,59.00
2023-05-07T15:22:32.926Z,59.24
2023-05-07T15:24:34.240Z,59.28
2023-05-07T15:26:35.553Z,59.30
2023-05-07T15:28:36.895Z,59.09
2023-05-07T15:30:38.234Z,59.39
2023-05-07T15:32:39.669Z,59.13
2023-05-07T15:34:47.941Z,59.35
2023-05-07T15:36:49.366Z,59.04
2023-05-07T15:38:50.694Z,58.89
2023-05-07T15:40:51.999Z,58.88
2023-05-07T15:42:53.336Z,58.81
2023-05-07T15:44:54.684Z,58.79
2023-05-07T15:46:55.987Z,59.00
2023-05-07T15:48:57.353Z,58.60
2023-05-07T15:50:59.189Z,59.23
2023-05-07T15:53:00.491Z,59.07
2023-05-07T15:55:03.524Z,58.96
2023-05-07T15:57:11.825Z,58.74
2023-05-07T15:59:13.181Z,59.12
2023-05-07T16:01:14.478Z,59.39
2023-05-07T16:03:16.320Z,58.86
2023-05-07T16:05:17.878Z,59.20
2023-05-07T16:07:19.869Z,60.02
2023-05-07T16:09:21.527Z,57.66
2023-05-07T16:11:22.851Z,57.65
2023-05-07T16:13:24.992Z,58.12
2023-05-07T16:15:26.522Z,58.39
2023-05-07T16:17:30.837Z,58.32
2023-05-07T16:19:32.154Z,56.92
2023-05-07T16:21:33.479Z,58.26
2023-05-07T16:23:34.907Z,57.41
2023-05-07T16:25:36.217Z,58.07
2023-05-07T16:27:37.521Z,58.70
2023-05-07T16:29:39.019Z,58.49
2023-05-07T16:31:40.772Z,58.58
2023-05-07T16:33:45.200Z,58.56
2023-05-07T16:35:47.652Z,58.86
2023-05-07T16:37:55.074Z,58.54
2023-05-07T16:40:00.750Z,58.30
2023-05-07T16:42:03.016Z,58.95
2023-05-07T16:44:04.378Z,58.25
2023-05-07T16:46:05.873Z,58.32
2023-05-07T16:48:08.475Z,58.23
2023-05-07T16:50:09.986Z,58.80
2023-05-07T16:52:11.294Z,57.83
2023-05-07T16:54:12.809Z,56.56
2023-05-07T16:56:14.154Z,57.28
2023-05-07T16:58:15.539Z,57.77
2023-05-07T17:00:16.928Z,57.69
2023-05-07T17:02:18.238Z,58.12
2023-05-07T17:04:19.575Z,59.65
2023-05-07T17:06:20.925Z,57.36
2023-05-07T17:08:22.257Z,57.60
2023-05-07T17:10:23.548Z,58.03
2023-05-07T17:12:25.359Z,57.92
2023-05-07T17:14:26.704Z,58.14
2023-05-07T17:16:28.089Z,57.86
2023-05-07T17:18:29.456Z,57.80
2023-05-07T17:20:31.070Z,58.34
2023-05-07T17:22:32.405Z,57.99
2023-05-07T17:24:33.739Z,58.49
2023-05-07T17:26:36.500Z,58.04
2023-05-07T17:28:37.814Z,58.47
2023-05-07T17:30:39.117Z,58.83
2023-05-07T17:32:40.464Z,59.00
2023-05-07T17:34:41.803Z,58.33
2023-05-07T17:36:43.164Z,58.44
2023-05-07T17:38:44.464Z,57.79
2023-05-07T17:40:45.837Z,56.16
2023-05-07T17:42:47.185Z,57.28
2023-05-07T17:44:57.538Z,58.19
2023-05-07T17:46:58.979Z,57.55
2023-05-07T17:49:03.371Z,58.45
2023-05-07T17:51:04.705Z,57.90
2023-05-07T17:53:06.187Z,57.87
2023-05-07T17:55:07.534Z,58.48
2023-05-07T17:57:14.972Z,58.70
2023-05-07T17:59:16.346Z,59.33
2023-05-07T18:01:17.754Z,58.29
2023-05-07T18:03:19.218Z,58.53
2023-05-07T18:05:20.589Z,59.47
2023-05-07T18:07:21.965Z,59.63
2023-05-07T18:09:23.289Z,59.64
2023-05-07T18:11:24.805Z,58.72
2023-05-07T18:13:26.171Z,58.90
2023-05-07T18:15:27.503Z,58.70
2023-05-07T18:17:28.853Z,58.94
2023-05-07T18:19:30.248Z,58.69
2023-05-07T18:21:31.763Z,59.12
2023-05-07T18:23:36.766Z,59.10
2023-05-07T18:25:47.198Z,59.31
2023-05-07T18:27:48.563Z,59.57
2023-05-07T18:29:49.931Z,60.51
2023-05-07T18:31:51.318Z,60.59
2023-05-07T18:33:53.106Z,60.14
2023-05-07T18:35:57.063Z,59.87
2023-05-07T18:38:00.488Z,59.45
2023-05-07T18:40:04.011Z,59.84
2023-05-07T18:42:05.388Z,59.38
2023-05-07T18:44:07.265Z,59.09
2023-05-07T18:46:08.708Z,59.18
2023-05-07T18:48:10.130Z,58.94
2023-05-07T18:50:11.806Z,58.96
2023-05-07T18:52:13.346Z,58.85
2023-05-07T18:54:14.659Z,58.77
2023-05-07T18:56:16.016Z,58.66
2023-05-07T18:58:19.750Z,58.88
2023-05-07T19:00:21.228Z,59.35
2023-05-07T19:02:25.622Z,59.09
2023-05-07T19:04:27.024Z,58.85
2023-05-07T19:06:33.244Z,59.05
2023-05-07T19:08:35.134Z,58.81
2023-05-07T19:10:36.451Z,58.78
2023-05-07T19:12:37.854Z,58.99
2023-05-07T19:14:42.802Z,58.93
2023-05-07T19:16:44.156Z,58.75
2023-05-07T19:18:45.486Z,58.80
2023-05-07T19:20:46.789Z,59.11
2023-05-07T19:22:48.148Z,58.31
2023-05-07T19:24:49.503Z,58.26
2023-05-07T19:26:51.367Z,58.06
2023-05-07T19:29:01.680Z,58.78
2023-05-07T19:31:13.520Z,58.31
2023-05-07T19:33:14.863Z,58.01
2023-05-07T19:35:16.240Z,57.80
2023-05-07T19:37:17.701Z,57.89
2023-05-07T19:39:20.363Z,56.73
2023-05-07T19:41:24.946Z,56.97
2023-05-07T19:43:26.263Z,57.03
2023-05-07T19:45:27.607Z,57.23
2023-05-07T19:47:29.072Z,57.86
2023-05-07T19:49:30.482Z,58.02
2023-05-07T19:51:33.270Z,58.08
2023-05-07T19:53:34.612Z,58.30
2023-05-07T19:55:35.949Z,58.24
2023-05-07T19:57:37.274Z,58.55
2023-05-07T19:59:38.684Z,57.84
2023-05-07T20:01:40.177Z,58.16
2023-05-07T20:03:41.982Z,58.32
2023-05-07T20:05:43.424Z,58.79
2023-05-07T20:07:50.656Z,58.47
2023-05-07T20:09:54.926Z,58.84
2023-05-07T20:11:56.871Z,58.59
2023-05-07T20:13:58.196Z,58.55
2023-05-07T20:15:59.811Z,58.70
2023-05-07T20:18:01.228Z,58.79
2023-05-07T20:20:02.537Z,58.53
2023-05-07T20:22:04.755Z,58.98
2023-05-07T20:24:06.215Z,58.80
2023-05-07T20:26:07.572Z,58.28
2023-05-07T20:28:08.892Z,58.52
2023-05-07T20:30:10.517Z,58.70
2023-05-07T20:32:12.246Z,58.91
2023-05-07T20:34:13.642Z,59.27
2023-05-07T20:36:18.136Z,59.00
2023-05-07T20:38:19.532Z,59.01
2023-05-07T20:40:20.885Z,58.79
2023-05-07T20:42:22.338Z,58.71
2023-05-07T20:44:23.694Z,58.86
2023-05-07T20:46:27.281Z,58.73
2023-05-07T20:48:30.724Z,58.45
2023-05-07T20:50:32.340Z,58.49
2023-05-07T20:52:36.723Z,58.74
2023-05-07T20:54:40.346Z,58.90
2023-05-07T20:56:43.165Z,58.72
2023-05-07T20:58:44.619Z,58.94
2023-05-07T21:00:45.959Z,58.83
2023-05-07T21:02:47.334Z,58.40
2023-05-07T21:04:51.417Z,57.51
2023-05-07T21:06:52.804Z,57.25
2023-05-07T21:08:54.183Z,57.41
2023-05-07T21:10:55.554Z,57.88
2023-05-07T21:12:56.960Z,57.36
2023-05-07T21:14:58.438Z,57.45
2023-05-07T21:17:00.535Z,57.32
2023-05-07T21:19:02.035Z,57.14
2023-05-07T21:21:03.385Z,57.92
2023-05-07T21:23:04.684Z,57.72
2023-05-07T21:25:06.171Z,48.20
2023-05-07T21:27:07.554Z,46.40
2023-05-07T21:29:09.163Z,45.75
2023-05-07T21:31:10.520Z,46.64
2023-05-07T21:33:11.915Z,49.65
2023-05-07T21:35:13.305Z,50.21
2023-05-07T21:37:15.760Z,50.26
2023-05-07T21:39:17.095Z,51.33
2023-05-07T21:41:20.428Z,51.61
2023-05-07T21:43:21.755Z,51.88
2023-05-07T21:45:23.079Z,52.34
2023-05-07T21:47:24.509Z,52.80
2023-05-07T21:49:25.925Z,52.87
2023-05-07T21:51:27.719Z,53.05
2023-05-07T21:53:29.153Z,53.64
2023-05-07T21:55:30.414Z,53.66
2023-05-07T21:57:31.857Z,53.96
2023-05-07T21:59:34.234Z,53.97
2023-05-07T22:01:35.679Z,54.69
2023-05-07T22:03:37.119Z,54.69
2023-05-07T22:05:38.525Z,54.73
2023-05-07T22:07:39.847Z,54.88
2023-05-07T22:09:41.188Z,55.32
2023-05-07T22:11:45.177Z,55.44
2023-05-07T22:13:46.508Z,55.93
2023-05-07T22:15:56.818Z,55.65
2023-05-07T22:17:59.642Z,56.05
2023-05-07T22:20:00.974Z,56.61
2023-05-07T22:22:02.348Z,56.90
2023-05-07T22:24:07.127Z,56.31
2023-05-07T22:26:08.436Z,56.61
2023-05-07T22:28:09.739Z,57.00
2023-05-07T22:30:11.394Z,56.63
2023-05-07T22:32:13.060Z,57.22
2023-05-07T22:34:14.509Z,57.53
2023-05-07T22:36:15.812Z,57.58
2023-05-07T22:38:17.129Z,58.34
2023-05-07T22:40:18.435Z,58.21
2023-05-07T22:42:19.879Z,58.11
2023-05-07T22:44:21.216Z,58.11
2023-05-07T22:46:22.650Z,58.29
2023-05-07T22:48:24.058Z,58.50
2023-05-07T22:50:25.367Z,58.61
2023-05-07T22:52:26.677Z,58.43
2023-05-07T22:54:28.023Z,58.64
2023-05-07T22:56:29.362Z,58.87
2023-05-07T22:58:30.666Z,58.48
2023-05-07T23:00:31.976Z,59.01
2023-05-07T23:02:33.378Z,58.71
2023-05-07T23:04:34.783Z,58.79
2023-05-07T23:06:36.121Z,58.78
2023-05-07T23:08:37.427Z,59.57
2023-05-07T23:10:38.738Z,59.66
2023-05-07T23:12:40.082Z,59.53
2023-05-07T23:14:41.424Z,59.51
2023-05-07T23:16:42.847Z,59.46
2023-05-07T23:18:44.245Z,59.54
2023-05-07T23:20:45.769Z,59.78
2023-05-07T23:22:47.069Z,59.88
2023-05-07T23:24:48.368Z,59.77
2023-05-07T23:26:49.652Z,59.69
2023-05-07T23:28:51.009Z,59.88
2023-05-07T23:30:52.328Z,59.88
2023-05-07T23:32:53.821Z,60.18
2023-05-07T23:34:56.833Z,59.78
2023-05-07T23:36:58.272Z,60.01
2023-05-07T23:38:59.577Z,60.28
2023-05-07T23:41:00.876Z,60.21
2023-05-07T23:43:02.281Z,59.72
2023-05-07T23:45:03.601Z,60.26
2023-05-07T23:47:04.909Z,60.47
2023-05-07T23:49:06.217Z,59.84
2023-05-07T23:51:07.515Z,59.68
2023-05-07T23:53:08.948Z,60.14
2023-05-07T23:55:10.271Z,60.08
2023-05-07T23:57:11.933Z,59.79
2023-05-07T23:59:13.288Z,59.89
